sensor_id;sensor_type;location;lat;lon;timestamp;P1;durP1;ratioP1;P2;durP2;ratioP2
36321;SDS011;23564;48.290;11.460;2023-02-15T00:01:13;238.20;;;21.65;;
36321;SDS011;23564;48.290;11.460;2023-02-15T00:03:39;155.10;;;20.02;;
36321;SDS011;23564;48.290;11.460;2023-02-15T00:06:04;88.60;;;16.98;;
36321;SDS011;23564;48.290;11.460;2023-02-15T00:08:30;47.88;;;16.10;;
36321;SDS011;23564;48.290;11.460;2023-02-15T00:11:09;97.25;;;17.13;;
36321;SDS011;23564;48.290;11.460;2023-02-15T00:13:36;54.03;;;16.25;;
36321;SDS011;23564;48.290;11.460;2023-02-15T00:16:05;97.15;;;17.65;;
36321;SDS011;23564;48.290;11.460;2023-02-15T00:18:32;56.67;;;17.55;;
36321;SDS011;23564;48.290;11.460;2023-02-15T00:20:58;58.42;;;17.45;;
36321;SDS011;23564;48.290;11.460;2023-02-15T00:23:27;50.40;;;17.15;;
36321;SDS011;23564;48.290;11.460;2023-02-15T00:26:02;71.03;;;17.45;;
36321;SDS011;23564;48.290;11.460;2023-02-15T00:28:32;52.58;;;17.17;;
36321;SDS011;23564;48.290;11.460;2023-02-15T00:31:08;68.93;;;18.33;;
36321;SDS011;23564;48.290;11.460;2023-02-15T00:33:35;96.38;;;18.92;;
36321;SDS011;23564;48.290;11.460;2023-02-15T00:36:02;43.50;;;16.45;;
36321;SDS011;23564;48.290;11.460;2023-02-15T00:38:30;74.97;;;18.58;;
36321;SDS011;23564;48.290;11.460;2023-02-15T00:40:59;120.03;;;18.63;;
36321;SDS011;23564;48.290;11.460;2023-02-15T00:43:27;34.67;;;15.07;;
36321;SDS011;23564;48.290;11.460;2023-02-15T00:45:54;40.55;;;14.18;;
36321;SDS011;23564;48.290;11.460;2023-02-15T00:48:20;32.10;;;15.93;;
36321;SDS011;23564;48.290;11.460;2023-02-15T00:50:49;119.85;;;16.67;;
36321;SDS011;23564;48.290;11.460;2023-02-15T00:53:16;65.20;;;16.38;;
36321;SDS011;23564;48.290;11.460;2023-02-15T00:55:42;80.22;;;15.18;;
36321;SDS011;23564;48.290;11.460;2023-02-15T00:58:08;164.75;;;18.73;;
36321;SDS011;23564;48.290;11.460;2023-02-15T01:00:34;52.75;;;16.50;;
36321;SDS011;23564;48.290;11.460;2023-02-15T01:03:00;198.43;;;20.23;;
36321;SDS011;23564;48.290;11.460;2023-02-15T01:05:26;47.58;;;15.10;;
36321;SDS011;23564;48.290;11.460;2023-02-15T01:07:52;37.63;;;15.60;;
36321;SDS011;23564;48.290;11.460;2023-02-15T01:10:17;75.80;;;17.50;;
36321;SDS011;23564;48.290;11.460;2023-02-15T01:12:43;41.00;;;15.82;;
36321;SDS011;23564;48.290;11.460;2023-02-15T01:15:08;69.55;;;16.85;;
36321;SDS011;23564;48.290;11.460;2023-02-15T01:17:34;122.47;;;17.88;;
36321;SDS011;23564;48.290;11.460;2023-02-15T01:20:00;56.40;;;16.00;;
36321;SDS011;23564;48.290;11.460;2023-02-15T01:22:26;36.72;;;15.40;;
36321;SDS011;23564;48.290;11.460;2023-02-15T01:24:51;63.00;;;15.82;;
36321;SDS011;23564;48.290;11.460;2023-02-15T01:27:17;47.25;;;15.13;;
36321;SDS011;23564;48.290;11.460;2023-02-15T01:29:42;40.78;;;15.70;;
36321;SDS011;23564;48.290;11.460;2023-02-15T01:32:08;27.20;;;14.60;;
36321;SDS011;23564;48.290;11.460;2023-02-15T01:34:34;56.28;;;15.18;;
36321;SDS011;23564;48.290;11.460;2023-02-15T01:36:59;59.28;;;14.75;;
36321;SDS011;23564;48.290;11.460;2023-02-15T01:39:25;39.22;;;13.43;;
36321;SDS011;23564;48.290;11.460;2023-02-15T01:41:51;28.00;;;13.20;;
36321;SDS011;23564;48.290;11.460;2023-02-15T01:44:40;34.55;;;13.68;;
36321;SDS011;23564;48.290;11.460;2023-02-15T01:47:15;33.58;;;13.73;;
36321;SDS011;23564;48.290;11.460;2023-02-15T01:49:48;63.65;;;13.60;;
36321;SDS011;23564;48.290;11.460;2023-02-15T01:52:22;43.83;;;13.30;;
36321;SDS011;23564;48.290;11.460;2023-02-15T01:54:48;90.47;;;15.43;;
36321;SDS011;23564;48.290;11.460;2023-02-15T01:57:16;46.20;;;15.10;;
36321;SDS011;23564;48.290;11.460;2023-02-15T01:59:45;33.10;;;12.88;;
36321;SDS011;23564;48.290;11.460;2023-02-15T02:02:14;28.83;;;13.13;;
36321;SDS011;23564;48.290;11.460;2023-02-15T02:04:49;127.03;;;16.08;;
36321;SDS011;23564;48.290;11.460;2023-02-15T02:07:17;104.28;;;15.57;;
36321;SDS011;23564;48.290;11.460;2023-02-15T02:09:45;84.90;;;14.13;;
36321;SDS011;23564;48.290;11.460;2023-02-15T02:12:10;57.20;;;13.88;;
36321;SDS011;23564;48.290;11.460;2023-02-15T02:14:37;135.73;;;15.88;;
36321;SDS011;23564;48.290;11.460;2023-02-15T02:22:42;50.95;;;13.98;;
36321;SDS011;23564;48.290;11.460;2023-02-15T02:36:29;47.60;;;14.88;;
36321;SDS011;23564;48.290;11.460;2023-02-15T02:42:01;34.80;;;13.93;;
36321;SDS011;23564;48.290;11.460;2023-02-15T02:44:52;33.40;;;13.38;;
36321;SDS011;23564;48.290;11.460;2023-02-15T02:50:05;59.35;;;14.30;;
36321;SDS011;23564;48.290;11.460;2023-02-15T02:52:41;48.13;;;13.75;;
36321;SDS011;23564;48.290;11.460;2023-02-15T02:57:47;45.00;;;14.20;;
36321;SDS011;23564;48.290;11.460;2023-02-15T03:00:31;77.28;;;14.85;;
36321;SDS011;23564;48.290;11.460;2023-02-15T03:03:02;149.32;;;17.35;;
36321;SDS011;23564;48.290;11.460;2023-02-15T03:05:45;153.63;;;16.80;;
36321;SDS011;23564;48.290;11.460;2023-02-15T03:08:15;93.65;;;16.05;;
36321;SDS011;23564;48.290;11.460;2023-02-15T03:10:46;125.45;;;14.98;;
36321;SDS011;23564;48.290;11.460;2023-02-15T03:13:17;62.55;;;14.80;;
36321;SDS011;23564;48.290;11.460;2023-02-15T03:15:43;44.58;;;12.63;;
36321;SDS011;23564;48.290;11.460;2023-02-15T03:18:36;62.08;;;14.63;;
36321;SDS011;23564;48.290;11.460;2023-02-15T03:21:06;116.85;;;15.27;;
36321;SDS011;23564;48.290;11.460;2023-02-15T03:23:34;97.85;;;14.60;;
36321;SDS011;23564;48.290;11.460;2023-02-15T03:26:03;82.20;;;14.35;;
36321;SDS011;23564;48.290;11.460;2023-02-15T03:28:33;65.03;;;14.73;;
36321;SDS011;23564;48.290;11.460;2023-02-15T03:31:04;74.32;;;14.80;;
36321;SDS011;23564;48.290;11.460;2023-02-15T03:33:32;47.55;;;13.60;;
36321;SDS011;23564;48.290;11.460;2023-02-15T03:39:02;197.10;;;18.38;;
36321;SDS011;23564;48.290;11.460;2023-02-15T03:41:51;49.55;;;14.07;;
36321;SDS011;23564;48.290;11.460;2023-02-15T03:44:47;34.25;;;12.98;;
36321;SDS011;23564;48.290;11.460;2023-02-15T03:47:19;144.90;;;18.33;;
36321;SDS011;23564;48.290;11.460;2023-02-15T03:49:55;103.00;;;15.75;;
36321;SDS011;23564;48.290;11.460;2023-02-15T03:52:55;125.75;;;16.00;;
36321;SDS011;23564;48.290;11.460;2023-02-15T03:55:23;39.30;;;13.43;;
36321;SDS011;23564;48.290;11.460;2023-02-15T03:57:49;82.93;;;15.32;;
36321;SDS011;23564;48.290;11.460;2023-02-15T04:00:35;122.43;;;19.27;;
36321;SDS011;23564;48.290;11.460;2023-02-15T04:03:30;114.13;;;17.23;;
36321;SDS011;23564;48.290;11.460;2023-02-15T04:06:16;103.72;;;16.67;;
36321;SDS011;23564;48.290;11.460;2023-02-15T04:08:41;127.20;;;16.23;;
36321;SDS011;23564;48.290;11.460;2023-02-15T04:11:25;124.57;;;17.20;;
36321;SDS011;23564;48.290;11.460;2023-02-15T04:13:51;83.82;;;16.48;;
36321;SDS011;23564;48.290;11.460;2023-02-15T04:16:21;43.97;;;14.80;;
36321;SDS011;23564;48.290;11.460;2023-02-15T04:18:47;49.25;;;15.25;;
36321;SDS011;23564;48.290;11.460;2023-02-15T04:21:33;60.92;;;15.02;;
36321;SDS011;23564;48.290;11.460;2023-02-15T04:24:17;45.83;;;13.77;;
36321;SDS011;23564;48.290;11.460;2023-02-15T04:27:02;60.13;;;14.77;;
36321;SDS011;23564;48.290;11.460;2023-02-15T04:29:29;50.00;;;14.95;;
36321;SDS011;23564;48.290;11.460;2023-02-15T04:31:56;24.38;;;13.25;;
36321;SDS011;23564;48.290;11.460;2023-02-15T04:34:23;114.55;;;16.35;;
36321;SDS011;23564;48.290;11.460;2023-02-15T04:36:48;41.75;;;14.15;;
36321;SDS011;23564;48.290;11.460;2023-02-15T04:39:15;80.68;;;15.45;;
36321;SDS011;23564;48.290;11.460;2023-02-15T04:41:42;68.35;;;14.90;;
36321;SDS011;23564;48.290;11.460;2023-02-15T04:44:08;48.45;;;14.07;;
36321;SDS011;23564;48.290;11.460;2023-02-15T04:46:33;89.15;;;15.10;;
36321;SDS011;23564;48.290;11.460;2023-02-15T04:48:59;65.70;;;14.07;;
36321;SDS011;23564;48.290;11.460;2023-02-15T04:51:25;59.47;;;12.70;;
36321;SDS011;23564;48.290;11.460;2023-02-15T04:53:50;120.43;;;15.85;;
36321;SDS011;23564;48.290;11.460;2023-02-15T04:56:19;82.95;;;15.32;;
36321;SDS011;23564;48.290;11.460;2023-02-15T04:58:45;54.60;;;13.75;;
36321;SDS011;23564;48.290;11.460;2023-02-15T05:01:11;87.88;;;15.40;;
36321;SDS011;23564;48.290;11.460;2023-02-15T05:03:36;53.85;;;13.70;;
36321;SDS011;23564;48.290;11.460;2023-02-15T05:06:02;94.28;;;15.10;;
36321;SDS011;23564;48.290;11.460;2023-02-15T05:08:28;34.15;;;13.75;;
36321;SDS011;23564;48.290;11.460;2023-02-15T05:10:55;46.25;;;13.55;;
36321;SDS011;23564;48.290;11.460;2023-02-15T05:13:21;51.35;;;13.30;;
36321;SDS011;23564;48.290;11.460;2023-02-15T05:15:49;47.67;;;12.65;;
36321;SDS011;23564;48.290;11.460;2023-02-15T05:18:16;100.65;;;12.95;;
36321;SDS011;23564;48.290;11.460;2023-02-15T05:20:43;94.70;;;13.52;;
36321;SDS011;23564;48.290;11.460;2023-02-15T05:23:09;36.22;;;13.35;;
36321;SDS011;23564;48.290;11.460;2023-02-15T05:25:35;55.80;;;13.00;;
36321;SDS011;23564;48.290;11.460;2023-02-15T05:28:19;41.58;;;13.15;;
36321;SDS011;23564;48.290;11.460;2023-02-15T05:30:45;45.10;;;12.82;;
36321;SDS011;23564;48.290;11.460;2023-02-15T05:33:15;70.60;;;13.52;;
36321;SDS011;23564;48.290;11.460;2023-02-15T05:35:40;69.70;;;12.75;;
36321;SDS011;23564;48.290;11.460;2023-02-15T05:38:06;27.88;;;11.65;;
36321;SDS011;23564;48.290;11.460;2023-02-15T05:40:32;56.33;;;12.88;;
36321;SDS011;23564;48.290;11.460;2023-02-15T05:42:58;175.68;;;14.20;;
36321;SDS011;23564;48.290;11.460;2023-02-15T05:45:23;60.58;;;11.48;;
36321;SDS011;23564;48.290;11.460;2023-02-15T05:47:49;33.33;;;12.55;;
36321;SDS011;23564;48.290;11.460;2023-02-15T05:50:15;60.45;;;12.15;;
36321;SDS011;23564;48.290;11.460;2023-02-15T05:52:40;82.20;;;13.85;;
36321;SDS011;23564;48.290;11.460;2023-02-15T05:55:06;19.70;;;11.35;;
36321;SDS011;23564;48.290;11.460;2023-02-15T05:57:33;27.60;;;12.18;;
36321;SDS011;23564;48.290;11.460;2023-02-15T05:59:59;57.58;;;13.52;;
36321;SDS011;23564;48.290;11.460;2023-02-15T06:02:25;24.70;;;12.38;;
36321;SDS011;23564;48.290;11.460;2023-02-15T06:04:50;28.33;;;12.68;;
36321;SDS011;23564;48.290;11.460;2023-02-15T06:07:16;60.33;;;14.50;;
36321;SDS011;23564;48.290;11.460;2023-02-15T06:09:41;41.90;;;12.32;;
36321;SDS011;23564;48.290;11.460;2023-02-15T06:12:07;51.08;;;13.07;;
36321;SDS011;23564;48.290;11.460;2023-02-15T06:14:33;46.70;;;12.52;;
36321;SDS011;23564;48.290;11.460;2023-02-15T06:16:58;34.78;;;12.23;;
36321;SDS011;23564;48.290;11.460;2023-02-15T06:19:24;81.15;;;13.57;;
36321;SDS011;23564;48.290;11.460;2023-02-15T06:21:49;33.47;;;11.95;;
36321;SDS011;23564;48.290;11.460;2023-02-15T06:24:15;61.25;;;13.40;;
36321;SDS011;23564;48.290;11.460;2023-02-15T06:26:40;44.45;;;12.82;;
36321;SDS011;23564;48.290;11.460;2023-02-15T06:29:06;30.40;;;12.15;;
36321;SDS011;23564;48.290;11.460;2023-02-15T06:31:32;32.28;;;11.75;;
36321;SDS011;23564;48.290;11.460;2023-02-15T06:33:57;24.45;;;11.32;;
36321;SDS011;23564;48.290;11.460;2023-02-15T06:36:29;38.10;;;11.77;;
36321;SDS011;23564;48.290;11.460;2023-02-15T06:38:55;35.58;;;12.43;;
36321;SDS011;23564;48.290;11.460;2023-02-15T06:41:22;31.33;;;11.88;;
36321;SDS011;23564;48.290;11.460;2023-02-15T06:43:47;83.93;;;14.75;;
36321;SDS011;23564;48.290;11.460;2023-02-15T06:46:14;71.22;;;15.02;;
36321;SDS011;23564;48.290;11.460;2023-02-15T06:48:39;66.15;;;13.43;;
36321;SDS011;23564;48.290;11.460;2023-02-15T06:51:05;28.70;;;12.65;;
36321;SDS011;23564;48.290;11.460;2023-02-15T06:53:31;43.80;;;13.40;;
36321;SDS011;23564;48.290;11.460;2023-02-15T06:56:00;27.27;;;12.27;;
36321;SDS011;23564;48.290;11.460;2023-02-15T06:58:27;60.67;;;13.57;;
36321;SDS011;23564;48.290;11.460;2023-02-15T07:00:53;38.80;;;12.88;;
36321;SDS011;23564;48.290;11.460;2023-02-15T07:03:19;58.85;;;13.70;;
36321;SDS011;23564;48.290;11.460;2023-02-15T07:05:44;65.68;;;13.18;;
36321;SDS011;23564;48.290;11.460;2023-02-15T07:08:10;61.25;;;13.15;;
36321;SDS011;23564;48.290;11.460;2023-02-15T07:10:36;35.22;;;13.63;;
36321;SDS011;23564;48.290;11.460;2023-02-15T07:13:01;40.28;;;12.50;;
36321;SDS011;23564;48.290;11.460;2023-02-15T07:15:27;28.92;;;12.68;;
36321;SDS011;23564;48.290;11.460;2023-02-15T07:17:52;24.02;;;12.60;;
36321;SDS011;23564;48.290;11.460;2023-02-15T07:20:22;44.55;;;13.05;;
36321;SDS011;23564;48.290;11.460;2023-02-15T07:22:48;67.20;;;14.02;;
36321;SDS011;23564;48.290;11.460;2023-02-15T07:25:14;64.60;;;14.30;;
36321;SDS011;23564;48.290;11.460;2023-02-15T07:27:41;49.50;;;13.18;;
36321;SDS011;23564;48.290;11.460;2023-02-15T07:30:09;62.75;;;14.70;;
36321;SDS011;23564;48.290;11.460;2023-02-15T07:32:36;45.17;;;14.35;;
36321;SDS011;23564;48.290;11.460;2023-02-15T07:35:22;32.58;;;12.98;;
36321;SDS011;23564;48.290;11.460;2023-02-15T07:37:47;59.50;;;14.15;;
36321;SDS011;23564;48.290;11.460;2023-02-15T07:40:13;66.78;;;13.88;;
36321;SDS011;23564;48.290;11.460;2023-02-15T07:42:38;50.28;;;13.75;;
36321;SDS011;23564;48.290;11.460;2023-02-15T07:45:04;32.85;;;12.52;;
36321;SDS011;23564;48.290;11.460;2023-02-15T07:47:30;30.38;;;12.70;;
36321;SDS011;23564;48.290;11.460;2023-02-15T07:49:55;35.80;;;13.07;;
36321;SDS011;23564;48.290;11.460;2023-02-15T07:52:21;33.17;;;12.93;;
36321;SDS011;23564;48.290;11.460;2023-02-15T07:54:46;41.80;;;13.48;;
36321;SDS011;23564;48.290;11.460;2023-02-15T07:57:12;46.03;;;13.75;;
36321;SDS011;23564;48.290;11.460;2023-02-15T07:59:37;55.30;;;14.40;;
36321;SDS011;23564;48.290;11.460;2023-02-15T08:02:04;53.58;;;13.43;;
36321;SDS011;23564;48.290;11.460;2023-02-15T08:04:34;45.65;;;12.85;;
36321;SDS011;23564;48.290;11.460;2023-02-15T08:06:59;63.35;;;14.05;;
36321;SDS011;23564;48.290;11.460;2023-02-15T08:09:25;24.13;;;12.90;;
36321;SDS011;23564;48.290;11.460;2023-02-15T08:11:50;27.05;;;14.32;;
36321;SDS011;23564;48.290;11.460;2023-02-15T08:14:17;117.60;;;15.82;;
36321;SDS011;23564;48.290;11.460;2023-02-15T08:16:51;66.30;;;13.27;;
36321;SDS011;23564;48.290;11.460;2023-02-15T08:19:21;79.13;;;14.27;;
36321;SDS011;23564;48.290;11.460;2023-02-15T08:21:53;68.95;;;14.75;;
36321;SDS011;23564;48.290;11.460;2023-02-15T08:24:20;86.10;;;15.15;;
36321;SDS011;23564;48.290;11.460;2023-02-15T08:26:47;78.25;;;15.52;;
36321;SDS011;23564;48.290;11.460;2023-02-15T08:29:13;53.78;;;13.85;;
36321;SDS011;23564;48.290;11.460;2023-02-15T08:31:40;43.40;;;14.10;;
36321;SDS011;23564;48.290;11.460;2023-02-15T08:34:07;80.20;;;15.98;;
36321;SDS011;23564;48.290;11.460;2023-02-15T08:36:34;29.80;;;13.63;;
36321;SDS011;23564;48.290;11.460;2023-02-15T08:39:00;59.25;;;15.77;;
36321;SDS011;23564;48.290;11.460;2023-02-15T08:41:28;68.65;;;16.83;;
36321;SDS011;23564;48.290;11.460;2023-02-15T08:43:57;50.35;;;15.57;;
36321;SDS011;23564;48.290;11.460;2023-02-15T08:46:25;48.00;;;15.63;;
36321;SDS011;23564;48.290;11.460;2023-02-15T08:48:52;45.15;;;15.77;;
36321;SDS011;23564;48.290;11.460;2023-02-15T08:51:22;113.93;;;16.60;;
36321;SDS011;23564;48.290;11.460;2023-02-15T08:53:50;115.78;;;18.05;;
36321;SDS011;23564;48.290;11.460;2023-02-15T08:56:19;57.28;;;15.93;;
36321;SDS011;23564;48.290;11.460;2023-02-15T08:58:47;63.22;;;17.02;;
36321;SDS011;23564;48.290;11.460;2023-02-15T09:01:14;58.65;;;15.85;;
36321;SDS011;23564;48.290;11.460;2023-02-15T09:03:45;68.72;;;16.27;;
36321;SDS011;23564;48.290;11.460;2023-02-15T09:06:12;51.92;;;15.75;;
36321;SDS011;23564;48.290;11.460;2023-02-15T09:08:41;105.93;;;17.30;;
36321;SDS011;23564;48.290;11.460;2023-02-15T09:11:15;43.05;;;16.30;;
36321;SDS011;23564;48.290;11.460;2023-02-15T09:13:47;36.92;;;15.77;;
36321;SDS011;23564;48.290;11.460;2023-02-15T09:16:14;63.95;;;17.40;;
36321;SDS011;23564;48.290;11.460;2023-02-15T09:18:42;31.00;;;15.93;;
36321;SDS011;23564;48.290;11.460;2023-02-15T09:21:14;101.53;;;17.63;;
36321;SDS011;23564;48.290;11.460;2023-02-15T09:23:42;56.65;;;16.88;;
36321;SDS011;23564;48.290;11.460;2023-02-15T09:26:12;75.65;;;17.20;;
36321;SDS011;23564;48.290;11.460;2023-02-15T09:28:40;43.63;;;17.13;;
36321;SDS011;23564;48.290;11.460;2023-02-15T09:31:07;31.08;;;15.52;;
36321;SDS011;23564;48.290;11.460;2023-02-15T09:33:34;48.30;;;16.13;;
36321;SDS011;23564;48.290;11.460;2023-02-15T09:36:01;41.95;;;15.43;;
36321;SDS011;23564;48.290;11.460;2023-02-15T09:38:28;29.60;;;14.27;;
36321;SDS011;23564;48.290;11.460;2023-02-15T09:44:09;41.90;;;15.90;;
36321;SDS011;23564;48.290;11.460;2023-02-15T09:55:00;28.70;;;14.35;;
36321;SDS011;23564;48.290;11.460;2023-02-15T09:57:45;69.43;;;16.27;;
36321;SDS011;23564;48.290;11.460;2023-02-15T10:03:12;31.02;;;15.57;;
36321;SDS011;23564;48.290;11.460;2023-02-15T10:05:59;69.82;;;16.85;;
36321;SDS011;23564;48.290;11.460;2023-02-15T10:11:56;31.40;;;15.75;;
36321;SDS011;23564;48.290;11.460;2023-02-15T10:17:25;68.68;;;16.42;;
36321;SDS011;23564;48.290;11.460;2023-02-15T10:20:17;42.70;;;15.02;;
36321;SDS011;23564;48.290;11.460;2023-02-15T10:33:46;29.35;;;15.35;;
36321;SDS011;23564;48.290;11.460;2023-02-15T10:36:23;34.30;;;16.60;;
36321;SDS011;23564;48.290;11.460;2023-02-15T10:42:05;29.83;;;16.65;;
36321;SDS011;23564;48.290;11.460;2023-02-15T10:52:42;38.28;;;17.63;;
36321;SDS011;23564;48.290;11.460;2023-02-15T10:55:24;39.83;;;18.58;;
36321;SDS011;23564;48.290;11.460;2023-02-15T10:58:22;45.77;;;18.77;;
36321;SDS011;23564;48.290;11.460;2023-02-15T11:01:10;47.70;;;19.23;;
36321;SDS011;23564;48.290;11.460;2023-02-15T11:06:50;36.45;;;19.02;;
36321;SDS011;23564;48.290;11.460;2023-02-15T11:09:21;33.10;;;18.42;;
36321;SDS011;23564;48.290;11.460;2023-02-15T11:11:50;38.58;;;19.75;;
36321;SDS011;23564;48.290;11.460;2023-02-15T11:14:34;35.90;;;18.65;;
36321;SDS011;23564;48.290;11.460;2023-02-15T11:17:38;37.35;;;18.58;;
36321;SDS011;23564;48.290;11.460;2023-02-15T11:20:15;41.05;;;16.98;;
36321;SDS011;23564;48.290;11.460;2023-02-15T11:22:53;37.33;;;18.73;;
36321;SDS011;23564;48.290;11.460;2023-02-15T11:25:25;59.20;;;19.75;;
36321;SDS011;23564;48.290;11.460;2023-02-15T11:28:00;53.13;;;18.73;;
36321;SDS011;23564;48.290;11.460;2023-02-15T11:30:43;56.92;;;19.88;;
36321;SDS011;23564;48.290;11.460;2023-02-15T11:33:17;69.77;;;19.33;;
36321;SDS011;23564;48.290;11.460;2023-02-15T11:35:51;43.15;;;18.70;;
36321;SDS011;23564;48.290;11.460;2023-02-15T11:38:24;97.18;;;22.13;;
36321;SDS011;23564;48.290;11.460;2023-02-15T11:41:01;50.40;;;19.92;;
36321;SDS011;23564;48.290;11.460;2023-02-15T11:46:29;62.97;;;20.20;;
36321;SDS011;23564;48.290;11.460;2023-02-15T11:48:54;56.53;;;21.25;;
36321;SDS011;23564;48.290;11.460;2023-02-15T11:51:21;52.30;;;21.38;;
36321;SDS011;23564;48.290;11.460;2023-02-15T11:53:48;61.35;;;21.85;;
36321;SDS011;23564;48.290;11.460;2023-02-15T12:01:33;43.10;;;20.40;;
36321;SDS011;23564;48.290;11.460;2023-02-15T12:06:53;35.42;;;20.77;;
36321;SDS011;23564;48.290;11.460;2023-02-15T12:09:46;42.65;;;23.48;;
36321;SDS011;23564;48.290;11.460;2023-02-15T12:12:33;47.92;;;22.80;;
36321;SDS011;23564;48.290;11.460;2023-02-15T12:15:01;44.50;;;22.88;;
36321;SDS011;23564;48.290;11.460;2023-02-15T12:17:29;39.80;;;21.58;;
36321;SDS011;23564;48.290;11.460;2023-02-15T12:20:02;36.20;;;21.23;;
36321;SDS011;23564;48.290;11.460;2023-02-15T12:22:32;41.40;;;22.48;;
36321;SDS011;23564;48.290;11.460;2023-02-15T12:25:02;41.10;;;21.65;;
36321;SDS011;23564;48.290;11.460;2023-02-15T12:27:44;41.22;;;21.92;;
36321;SDS011;23564;48.290;11.460;2023-02-15T12:30:31;41.45;;;22.42;;
36321;SDS011;23564;48.290;11.460;2023-02-15T12:33:05;38.90;;;21.05;;
36321;SDS011;23564;48.290;11.460;2023-02-15T12:35:59;38.80;;;21.88;;
36321;SDS011;23564;48.290;11.460;2023-02-15T12:38:37;36.63;;;21.70;;
36321;SDS011;23564;48.290;11.460;2023-02-15T12:51:54;39.63;;;21.83;;
36321;SDS011;23564;48.290;11.460;2023-02-15T12:56:47;44.10;;;23.13;;
36321;SDS011;23564;48.290;11.460;2023-02-15T12:59:13;39.70;;;23.20;;
36321;SDS011;23564;48.290;11.460;2023-02-15T13:01:40;41.72;;;23.13;;
36321;SDS011;23564;48.290;11.460;2023-02-15T13:04:14;42.90;;;22.63;;
36321;SDS011;23564;48.290;11.460;2023-02-15T13:06:51;44.22;;;23.73;;
36321;SDS011;23564;48.290;11.460;2023-02-15T13:12:17;41.40;;;24.15;;
36321;SDS011;23564;48.290;11.460;2023-02-15T13:14:55;42.08;;;24.13;;
36321;SDS011;23564;48.290;11.460;2023-02-15T13:17:30;40.80;;;23.35;;
36321;SDS011;23564;48.290;11.460;2023-02-15T13:20:00;45.20;;;24.10;;
36321;SDS011;23564;48.290;11.460;2023-02-15T13:22:39;41.42;;;22.58;;
36321;SDS011;23564;48.290;11.460;2023-02-15T13:25:10;40.05;;;22.13;;
36321;SDS011;23564;48.290;11.460;2023-02-15T13:27:39;40.80;;;23.05;;
36321;SDS011;23564;48.290;11.460;2023-02-15T13:32:43;39.60;;;21.35;;
36321;SDS011;23564;48.290;11.460;2023-02-15T13:35:13;41.13;;;23.83;;
36321;SDS011;23564;48.290;11.460;2023-02-15T13:40:51;37.92;;;21.88;;
36321;SDS011;23564;48.290;11.460;2023-02-15T13:43:32;39.20;;;22.85;;
36321;SDS011;23564;48.290;11.460;2023-02-15T13:46:07;40.65;;;23.27;;
36321;SDS011;23564;48.290;11.460;2023-02-15T13:51:43;40.00;;;23.95;;
36321;SDS011;23564;48.290;11.460;2023-02-15T13:54:19;39.72;;;23.10;;
36321;SDS011;23564;48.290;11.460;2023-02-15T14:03:01;39.15;;;23.55;;
36321;SDS011;23564;48.290;11.460;2023-02-15T14:05:57;39.33;;;22.90;;
36321;SDS011;23564;48.290;11.460;2023-02-15T14:08:42;41.22;;;22.92;;
36321;SDS011;23564;48.290;11.460;2023-02-15T14:17:23;43.35;;;23.65;;
36321;SDS011;23564;48.290;11.460;2023-02-15T14:19:54;38.15;;;21.88;;
36321;SDS011;23564;48.290;11.460;2023-02-15T14:27:43;42.58;;;23.92;;
36321;SDS011;23564;48.290;11.460;2023-02-15T14:30:24;45.30;;;23.85;;
36321;SDS011;23564;48.290;11.460;2023-02-15T14:33:00;45.08;;;24.42;;
36321;SDS011;23564;48.290;11.460;2023-02-15T14:35:39;43.00;;;25.30;;
36321;SDS011;23564;48.290;11.460;2023-02-15T14:41:03;46.33;;;25.55;;
36321;SDS011;23564;48.290;11.460;2023-02-15T14:46:41;45.30;;;24.55;;
36321;SDS011;23564;48.290;11.460;2023-02-15T14:49:27;45.10;;;25.05;;
36321;SDS011;23564;48.290;11.460;2023-02-15T14:51:58;50.28;;;26.05;;
36321;SDS011;23564;48.290;11.460;2023-02-15T14:59:46;44.88;;;25.00;;
36321;SDS011;23564;48.290;11.460;2023-02-15T15:07:51;44.30;;;24.13;;
36321;SDS011;23564;48.290;11.460;2023-02-15T15:12:46;43.85;;;25.00;;
36321;SDS011;23564;48.290;11.460;2023-02-15T15:15:14;47.80;;;25.17;;
36321;SDS011;23564;48.290;11.460;2023-02-15T15:18:03;42.95;;;25.45;;
36321;SDS011;23564;48.290;11.460;2023-02-15T15:20:37;53.80;;;27.27;;
36321;SDS011;23564;48.290;11.460;2023-02-15T15:31:07;47.50;;;25.27;;
36321;SDS011;23564;48.290;11.460;2023-02-15T15:40:00;57.65;;;27.27;;
36321;SDS011;23564;48.290;11.460;2023-02-15T15:45:55;49.00;;;25.98;;
36321;SDS011;23564;48.290;11.460;2023-02-15T15:48:36;56.72;;;27.98;;
36321;SDS011;23564;48.290;11.460;2023-02-15T15:51:49;55.08;;;29.77;;
36321;SDS011;23564;48.290;11.460;2023-02-15T15:53:55;63.83;;;31.60;;
36321;SDS011;23564;48.290;11.460;2023-02-15T15:56:26;63.33;;;33.42;;
36321;SDS011;23564;48.290;11.460;2023-02-15T15:59:01;66.97;;;32.80;;
36321;SDS011;23564;48.290;11.460;2023-02-15T16:01:31;77.82;;;31.92;;
36321;SDS011;23564;48.290;11.460;2023-02-15T16:04:13;65.57;;;32.70;;
36321;SDS011;23564;48.290;11.460;2023-02-15T16:06:47;58.25;;;29.75;;
36321;SDS011;23564;48.290;11.460;2023-02-15T16:09:45;79.05;;;30.17;;
36321;SDS011;23564;48.290;11.460;2023-02-15T16:12:04;88.63;;;32.87;;
36321;SDS011;23564;48.290;11.460;2023-02-15T16:14:40;57.90;;;30.77;;
36321;SDS011;23564;48.290;11.460;2023-02-15T16:17:12;83.82;;;34.15;;
36321;SDS011;23564;48.290;11.460;2023-02-15T16:19:42;167.98;;;36.25;;
36321;SDS011;23564;48.290;11.460;2023-02-15T16:22:21;187.35;;;36.38;;
36321;SDS011;23564;48.290;11.460;2023-02-15T16:27:55;159.32;;;37.45;;
36321;SDS011;23564;48.290;11.460;2023-02-15T16:35:59;237.18;;;41.15;;
36321;SDS011;23564;48.290;11.460;2023-02-15T16:41:09;135.13;;;34.10;;
36321;SDS011;23564;48.290;11.460;2023-02-15T16:43:37;141.25;;;33.70;;
36321;SDS011;23564;48.290;11.460;2023-02-15T16:46:15;194.52;;;37.50;;
36321;SDS011;23564;48.290;11.460;2023-02-15T16:48:45;215.90;;;38.83;;
36321;SDS011;23564;48.290;11.460;2023-02-15T16:51:21;187.63;;;37.95;;
36321;SDS011;23564;48.290;11.460;2023-02-15T16:53:51;100.85;;;33.97;;
36321;SDS011;23564;48.290;11.460;2023-02-15T16:56:22;87.15;;;34.80;;
36321;SDS011;23564;48.290;11.460;2023-02-15T17:01:17;79.60;;;33.55;;
36321;SDS011;23564;48.290;11.460;2023-02-15T17:03:49;209.73;;;37.90;;
36321;SDS011;23564;48.290;11.460;2023-02-15T17:06:23;217.98;;;38.38;;
36321;SDS011;23564;48.290;11.460;2023-02-15T17:08:51;107.68;;;38.65;;
36321;SDS011;23564;48.290;11.460;2023-02-15T17:11:21;171.13;;;40.75;;
36321;SDS011;23564;48.290;11.460;2023-02-15T17:18:56;134.38;;;38.13;;
36321;SDS011;23564;48.290;11.460;2023-02-15T17:21:24;325.20;;;45.60;;
36321;SDS011;23564;48.290;11.460;2023-02-15T17:23:59;167.10;;;39.95;;
36321;SDS011;23564;48.290;11.460;2023-02-15T17:26:29;111.18;;;37.92;;
36321;SDS011;23564;48.290;11.460;2023-02-15T17:29:01;213.15;;;39.72;;
36321;SDS011;23564;48.290;11.460;2023-02-15T17:31:36;261.73;;;38.72;;